createdAt,value
2022-09-12T00:01:26.467Z,18.31
2022-09-12T00:03:54.926Z,18.35
2022-09-12T00:06:23.513Z,18.42
2022-09-12T00:08:51.415Z,18.47
2022-09-12T00:11:18.013Z,18.47
2022-09-12T00:13:44.577Z,18.48
2022-09-12T00:16:22.438Z,18.47
2022-09-12T00:18:49.486Z,18.45
2022-09-12T00:21:17.550Z,18.44
2022-09-12T00:23:44.393Z,18.48
2022-09-12T00:26:11.420Z,18.40
2022-09-12T00:28:39.202Z,18.33
2022-09-12T00:31:07.764Z,18.31
2022-09-12T00:33:35.354Z,18.28
2022-09-12T00:36:09.054Z,18.28
2022-09-12T00:38:38.560Z,18.18
2022-09-12T00:41:06.254Z,18.11
2022-09-12T00:43:35.597Z,18.00
2022-09-12T00:46:06.891Z,17.93
2022-09-12T00:48:44.595Z,17.92
2022-09-12T00:51:11.524Z,17.90
2022-09-12T00:53:40.231Z,17.87
2022-09-12T00:56:07.581Z,17.87
2022-09-12T00:58:41.750Z,17.86
2022-09-12T01:01:08.497Z,17.85
2022-09-12T01:03:35.198Z,17.93
2022-09-12T01:06:07.503Z,18.15
2022-09-12T01:08:37.379Z,18.24
2022-09-12T01:11:05.622Z,18.28
2022-09-12T01:13:34.832Z,18.32
2022-09-12T01:16:04.063Z,18.34
2022-09-12T01:19:04.206Z,18.35
2022-09-12T01:21:51.343Z,18.35
2022-09-12T01:24:17.890Z,18.34
2022-09-12T01:26:57.784Z,18.27
2022-09-12T01:29:27.390Z,18.09
2022-09-12T01:32:21.112Z,18.03
2022-09-12T01:34:54.661Z,18.04
2022-09-12T01:37:32.349Z,18.11
2022-09-12T01:40:16.729Z,18.15
2022-09-12T01:43:04.317Z,18.17
2022-09-12T01:45:36.383Z,18.12
2022-09-12T01:48:08.104Z,18.04
2022-09-12T01:50:40.375Z,18.02
2022-09-12T01:53:10.028Z,18.00
2022-09-12T01:55:47.055Z,18.01
2022-09-12T01:58:34.831Z,17.98
2022-09-12T02:01:12.584Z,17.97
2022-09-12T02:03:50.345Z,17.82
2022-09-12T02:06:23.874Z,17.75
2022-09-12T02:08:55.294Z,17.78
2022-09-12T02:11:22.280Z,17.78
2022-09-12T02:14:00.515Z,17.84
2022-09-12T02:16:46.639Z,17.88
2022-09-12T02:19:16.917Z,17.97
2022-09-12T02:21:48.664Z,18.00
2022-09-12T02:24:16.142Z,18.09
2022-09-12T02:26:56.139Z,18.13
2022-09-12T02:29:22.862Z,18.11
2022-09-12T02:31:58.956Z,18.14
2022-09-12T02:34:40.234Z,18.14
2022-09-12T02:37:17.671Z,18.15
2022-09-12T02:39:45.441Z,18.15
2022-09-12T02:42:12.590Z,18.12
2022-09-12T02:44:39.392Z,18.04
2022-09-12T02:47:10.046Z,17.95
2022-09-12T02:49:36.929Z,17.90
2022-09-12T02:52:03.928Z,17.90
2022-09-12T02:54:30.824Z,17.87
2022-09-12T02:56:57.420Z,17.81
2022-09-12T02:59:24.889Z,17.75
2022-09-12T03:02:15.790Z,17.67
2022-09-12T03:05:19.926Z,17.59
2022-09-12T03:07:59.371Z,17.54
2022-09-12T03:10:41.723Z,17.47
2022-09-12T03:13:31.648Z,17.54
2022-09-12T03:16:19.818Z,17.57
2022-09-12T03:19:06.767Z,17.53
2022-09-12T03:21:40.706Z,17.56
2022-09-12T03:24:16.444Z,17.50
2022-09-12T03:27:12.634Z,17.50
2022-09-12T03:29:40.474Z,17.49
2022-09-12T03:32:07.532Z,17.55
2022-09-12T03:34:34.109Z,17.61
2022-09-12T03:37:00.692Z,17.72
2022-09-12T03:39:27.933Z,17.78
2022-09-12T03:41:55.606Z,17.75
2022-09-12T03:44:22.422Z,17.71
2022-09-12T03:46:49.157Z,17.68
2022-09-12T03:49:16.245Z,17.67
2022-09-12T03:51:43.297Z,17.69
2022-09-12T03:54:10.635Z,17.74
2022-09-12T03:56:42.717Z,17.76
2022-09-12T03:59:09.371Z,17.82
2022-09-12T04:01:35.985Z,17.85
2022-09-12T04:04:02.835Z,17.90
2022-09-12T04:06:31.217Z,17.90
2022-09-12T04:08:58.566Z,17.88
2022-09-12T04:11:25.151Z,17.84
2022-09-12T04:13:51.769Z,17.76
2022-09-12T04:16:18.937Z,17.73
2022-09-12T04:18:46.397Z,17.71
2022-09-12T04:21:17.980Z,17.65
2022-09-12T04:23:44.706Z,17.63
2022-09-12T04:26:11.760Z,17.64
2022-09-12T04:28:38.628Z,17.72
2022-09-12T04:31:17.698Z,17.79
2022-09-12T04:33:45.476Z,17.82
2022-09-12T04:36:16.781Z,17.89
2022-09-12T04:38:45.204Z,17.91
2022-09-12T04:41:20.490Z,17.91
2022-09-12T04:43:48.320Z,17.88
2022-09-12T04:46:16.942Z,17.92
2022-09-12T04:48:44.239Z,17.89
2022-09-12T04:51:15.167Z,17.86
2022-09-12T04:53:42.332Z,17.84
2022-09-12T04:56:11.517Z,17.86
2022-09-12T04:58:38.461Z,17.87
2022-09-12T05:01:11.282Z,17.93
2022-09-12T05:03:39.619Z,17.97
2022-09-12T05:06:12.254Z,17.95
2022-09-12T05:08:38.861Z,17.95
2022-09-12T05:11:07.737Z,17.80
2022-09-12T05:13:35.004Z,17.79
2022-09-12T05:16:03.602Z,17.75
2022-09-12T05:18:32.786Z,17.77
2022-09-12T05:21:00.667Z,17.87
2022-09-12T05:23:27.796Z,17.95
2022-09-12T05:25:56.046Z,17.95
2022-09-12T05:28:23.054Z,17.99
2022-09-12T05:31:03.659Z,17.94
2022-09-12T05:33:31.277Z,17.93
2022-09-12T05:35:57.933Z,17.86
2022-09-12T05:38:25.187Z,17.77
2022-09-12T05:40:52.383Z,17.73
2022-09-12T05:43:20.410Z,17.75
2022-09-12T05:45:47.022Z,17.71
2022-09-12T05:48:13.704Z,17.63
2022-09-12T05:50:40.389Z,17.59
2022-09-12T05:53:08.564Z,17.59
2022-09-12T05:55:35.187Z,17.64
2022-09-12T05:58:01.930Z,17.81
2022-09-12T06:00:33.313Z,17.91
2022-09-12T06:03:01.500Z,17.96
2022-09-12T06:05:28.097Z,18.03
2022-09-12T06:07:54.684Z,17.93
2022-09-12T06:10:23.076Z,17.91
2022-09-12T06:12:49.768Z,17.90
2022-09-12T06:15:16.744Z,17.85
2022-09-12T06:17:43.358Z,17.84
2022-09-12T06:20:10.126Z,17.82
2022-09-12T06:22:36.680Z,17.82
2022-09-12T06:25:03.330Z,17.85
2022-09-12T06:27:29.914Z,17.82
2022-09-12T06:29:56.791Z,17.85
2022-09-12T06:32:23.432Z,17.91
2022-09-12T06:34:50.883Z,17.90
2022-09-12T06:37:17.450Z,17.82
2022-09-12T06:39:44.092Z,17.82
2022-09-12T06:42:10.753Z,17.92
2022-09-12T06:44:37.413Z,17.95
2022-09-12T06:47:04.128Z,18.00
2022-09-12T06:49:31.638Z,18.05
2022-09-12T06:51:58.229Z,18.04
2022-09-12T06:54:26.449Z,18.10
2022-09-12T06:56:53.034Z,18.10
2022-09-12T06:59:20.050Z,18.12
2022-09-12T07:01:46.676Z,18.08
2022-09-12T07:04:13.277Z,18.00
2022-09-12T07:06:41.607Z,17.94
2022-09-12T07:09:11.720Z,17.86
2022-09-12T07:11:40.088Z,17.91
2022-09-12T07:14:08.209Z,17.92
2022-09-12T07:16:36.120Z,18.03
2022-09-12T07:19:04.491Z,17.99
2022-09-12T07:21:31.127Z,17.99
2022-09-12T07:23:58.461Z,18.00
2022-09-12T07:26:28.054Z,18.05
2022-09-12T07:29:03.929Z,18.06
2022-09-12T07:31:39.825Z,18.14
2022-09-12T07:34:06.869Z,18.16
2022-09-12T07:36:34.305Z,18.17
2022-09-12T07:39:01.302Z,18.19
2022-09-12T07:41:29.974Z,18.22
2022-09-12T07:44:01.054Z,18.19
2022-09-12T07:46:29.596Z,18.25
2022-09-12T07:48:57.635Z,18.28
2022-09-12T07:51:25.744Z,18.24
2022-09-12T07:53:52.591Z,18.25
2022-09-12T07:56:20.011Z,18.15
2022-09-12T07:58:46.973Z,18.22
2022-09-12T08:01:18.985Z,18.29
2022-09-12T08:03:48.176Z,18.27
2022-09-12T08:06:17.039Z,18.30
2022-09-12T08:08:43.692Z,18.32
2022-09-12T08:11:12.896Z,18.36
2022-09-12T08:13:40.636Z,18.37
2022-09-12T08:16:12.406Z,18.41
2022-09-12T08:18:39.353Z,18.43
2022-09-12T08:21:08.130Z,18.41
2022-09-12T08:23:34.775Z,18.38
2022-09-12T08:26:06.111Z,18.36
2022-09-12T08:28:34.742Z,18.34
2022-09-12T08:31:08.909Z,18.38
2022-09-12T08:33:35.951Z,18.36
2022-09-12T08:36:06.201Z,18.38
2022-09-12T08:38:34.318Z,18.42
2022-09-12T08:41:10.174Z,18.40
2022-09-12T08:43:45.816Z,18.43
2022-09-12T08:46:19.451Z,18.42
2022-09-12T08:48:46.727Z,18.41
2022-09-12T08:51:16.038Z,18.42
2022-09-12T08:53:43.441Z,18.45
2022-09-12T08:56:11.832Z,18.48
2022-09-12T08:58:43.397Z,18.54
2022-09-12T09:01:33.189Z,18.53
2022-09-12T09:04:28.908Z,18.54
2022-09-12T09:07:07.688Z,18.52
2022-09-12T09:09:52.476Z,18.59
2022-09-12T09:12:45.308Z,18.62
2022-09-12T09:15:14.758Z,18.67
2022-09-12T09:17:50.077Z,18.73
2022-09-12T09:20:24.111Z,18.78
2022-09-12T09:22:57.884Z,18.81
2022-09-12T09:25:29.721Z,18.80
2022-09-12T09:28:05.172Z,18.78
2022-09-12T09:30:31.928Z,18.70
2022-09-12T09:33:00.960Z,18.71
2022-09-12T09:35:48.880Z,18.71
2022-09-12T09:38:25.687Z,18.76
2022-09-12T09:40:52.214Z,18.81
2022-09-12T09:43:23.862Z,18.86
2022-09-12T09:45:52.071Z,18.84
2022-09-12T09:48:21.486Z,18.86
2022-09-12T09:50:49.456Z,18.81
2022-09-12T09:53:42.388Z,18.75
2022-09-12T09:56:23.172Z,18.71
2022-09-12T09:58:50.097Z,18.76
2022-09-12T10:01:18.069Z,18.84
2022-09-12T10:03:52.970Z,18.86
2022-09-12T10:06:19.746Z,18.94
2022-09-12T10:08:46.681Z,18.98
2022-09-12T10:11:16.352Z,19.00
2022-09-12T10:13:56.313Z,19.03
2022-09-12T10:16:34.592Z,18.93
2022-09-12T10:19:03.730Z,18.90
2022-09-12T10:21:51.168Z,18.90
2022-09-12T10:24:27.834Z,18.89
2022-09-12T10:27:06.240Z,18.87
2022-09-12T10:29:35.310Z,18.93
2022-09-12T10:32:05.162Z,19.05
2022-09-12T10:34:42.165Z,19.13
2022-09-12T10:37:23.654Z,19.17
2022-09-12T10:39:53.743Z,19.16
2022-09-12T10:42:56.733Z,19.16
2022-09-12T10:45:31.983Z,19.11
2022-09-12T10:48:05.521Z,19.11
2022-09-12T10:50:43.474Z,19.13
2022-09-12T10:53:17.058Z,19.22
2022-09-12T10:56:00.677Z,19.24
2022-09-12T10:58:51.080Z,19.34
2022-09-12T11:01:41.538Z,19.38
2022-09-12T11:04:08.137Z,19.36
2022-09-12T11:06:53.989Z,19.39
2022-09-12T11:09:29.760Z,19.37
2022-09-12T11:12:04.796Z,19.35
2022-09-12T11:15:03.661Z,19.39
2022-09-12T11:17:57.695Z,19.36
2022-09-12T11:20:35.850Z,19.38
2022-09-12T11:23:39.993Z,19.39
2022-09-12T11:26:36.115Z,19.35
2022-09-12T11:29:21.189Z,19.30
2022-09-12T11:32:10.889Z,19.22
2022-09-12T11:34:47.509Z,19.24
2022-09-12T11:37:48.306Z,19.20
2022-09-12T11:40:32.308Z,19.14
2022-09-12T11:43:29.833Z,19.13
2022-09-12T11:46:00.174Z,19.13
2022-09-12T11:48:33.622Z,19.16
2022-09-12T11:51:00.354Z,19.14
2022-09-12T11:53:31.704Z,19.16
2022-09-12T11:56:18.614Z,19.16
2022-09-12T11:58:51.402Z,19.15
2022-09-12T12:01:21.964Z,19.13
2022-09-12T12:03:49.038Z,19.17
2022-09-12T12:06:21.991Z,19.18
2022-09-12T12:08:50.510Z,19.16
2022-09-12T12:11:36.855Z,19.15
2022-09-12T12:14:22.053Z,19.17
2022-09-12T12:16:49.629Z,19.20
2022-09-12T12:19:16.170Z,19.21
2022-09-12T12:21:47.690Z,19.25
2022-09-12T12:24:25.906Z,19.23
2022-09-12T12:27:03.788Z,19.23
2022-09-12T12:29:43.589Z,19.31
2022-09-12T12:32:10.522Z,19.33
2022-09-12T12:34:42.373Z,19.39
2022-09-12T12:37:21.195Z,19.41
2022-09-12T12:39:51.093Z,19.45
2022-09-12T12:42:35.610Z,19.52
2022-09-12T12:45:25.296Z,19.58
2022-09-12T12:47:54.874Z,19.61
2022-09-12T12:50:26.636Z,19.61
2022-09-12T12:53:02.951Z,19.54
2022-09-12T12:55:38.741Z,19.60
2022-09-12T12:58:06.551Z,19.65
2022-09-12T13:00:39.915Z,19.68
2022-09-12T13:03:06.705Z,19.72
2022-09-12T13:05:47.401Z,19.77
2022-09-12T13:08:16.900Z,19.84
2022-09-12T13:11:00.451Z,19.81
2022-09-12T13:13:37.202Z,19.81
2022-09-12T13:16:03.952Z,19.86
2022-09-12T13:18:44.697Z,19.86
2022-09-12T13:21:17.009Z,19.85
2022-09-12T13:23:44.250Z,19.87
2022-09-12T13:26:13.453Z,19.84
2022-09-12T13:28:40.089Z,19.86
2022-09-12T13:31:25.007Z,19.80
2022-09-12T13:33:54.820Z,19.80
2022-09-12T13:36:36.910Z,19.83
2022-09-12T13:39:28.535Z,19.86
2022-09-12T13:42:26.216Z,19.94
2022-09-12T13:45:06.580Z,19.98
2022-09-12T13:47:36.822Z,20.01
2022-09-12T13:50:05.921Z,19.94
2022-09-12T13:52:34.302Z,19.85
2022-09-12T13:55:02.186Z,19.79
2022-09-12T13:57:34.088Z,19.81
2022-09-12T14:00:07.984Z,19.88
2022-09-12T14:02:36.297Z,19.87
2022-09-12T14:05:29.569Z,19.79
2022-09-12T14:08:04.617Z,19.73
2022-09-12T14:10:39.383Z,19.78
2022-09-12T14:13:24.217Z,19.79
2022-09-12T14:15:53.334Z,19.79
2022-09-12T14:18:36.349Z,19.72
2022-09-12T14:21:30.335Z,19.72
2022-09-12T14:23:57.435Z,19.72
2022-09-12T14:26:24.384Z,19.73
2022-09-12T14:28:51.066Z,19.73
2022-09-12T14:31:22.388Z,19.69
2022-09-12T14:33:54.487Z,19.66
2022-09-12T14:36:30.529Z,19.62
2022-09-12T14:39:01.046Z,19.59
2022-09-12T14:41:32.503Z,19.56
2022-09-12T14:44:01.332Z,19.56
2022-09-12T14:46:34.588Z,19.54
2022-09-12T14:49:07.087Z,19.57
2022-09-12T14:51:36.500Z,19.59
2022-09-12T14:54:03.138Z,19.60
2022-09-12T14:56:54.269Z,19.58
2022-09-12T14:59:28.679Z,19.56
2022-09-12T15:02:13.747Z,19.56
2022-09-12T15:04:40.959Z,19.55
2022-09-12T15:07:36.031Z,19.55
2022-09-12T15:10:27.619Z,19.53
2022-09-12T15:13:06.109Z,19.52
2022-09-12T15:15:32.907Z,19.52
2022-09-12T15:18:02.363Z,19.50
2022-09-12T15:20:43.283Z,19.57
2022-09-12T15:23:18.479Z,19.60
2022-09-12T15:25:45.318Z,19.55
2022-09-12T15:28:20.890Z,19.52
2022-09-12T15:30:50.504Z,19.48
2022-09-12T15:33:22.843Z,19.47
2022-09-12T15:35:50.138Z,19.46
2022-09-12T15:38:16.761Z,19.45
2022-09-12T15:40:43.344Z,19.45
2022-09-12T15:43:13.243Z,19.44
2022-09-12T15:45:42.634Z,19.45
2022-09-12T15:48:09.725Z,19.45
2022-09-12T15:50:36.635Z,19.43
2022-09-12T15:53:03.326Z,19.42
2022-09-12T15:55:32.240Z,19.42
2022-09-12T15:58:03.553Z,19.40
2022-09-12T16:00:32.974Z,19.40
2022-09-12T16:02:59.621Z,19.40
2022-09-12T16:05:26.689Z,19.42
2022-09-12T16:07:54.674Z,19.40
2022-09-12T16:10:27.947Z,19.38
2022-09-12T16:12:54.738Z,19.39
2022-09-12T16:15:23.629Z,19.39
2022-09-12T16:17:50.795Z,19.39
2022-09-12T16:20:18.863Z,19.41
2022-09-12T16:22:45.540Z,19.41
2022-09-12T16:25:12.281Z,19.41
2022-09-12T16:27:39.059Z,19.40
2022-09-12T16:30:07.313Z,19.40
2022-09-12T16:32:34.051Z,19.39
2022-09-12T16:35:00.705Z,19.40
2022-09-12T16:37:27.442Z,19.39
2022-09-12T16:39:54.106Z,19.38
2022-09-12T16:42:20.757Z,19.40
2022-09-12T16:44:47.330Z,19.38
2022-09-12T16:47:14.590Z,19.38
2022-09-12T16:49:41.180Z,19.36
2022-09-12T16:52:08.189Z,19.36
2022-09-12T16:54:34.832Z,19.34
2022-09-12T16:57:01.526Z,19.33
2022-09-12T16:59:28.130Z,19.30
2022-09-12T17:01:54.773Z,19.28
2022-09-12T17:04:23.651Z,19.25
2022-09-12T17:06:50.540Z,19.24
2022-09-12T17:09:18.710Z,19.25
2022-09-12T17:11:50.354Z,19.23
2022-09-12T17:14:17.228Z,19.22
2022-09-12T17:16:50.764Z,19.21
2022-09-12T17:19:29.946Z,19.19
2022-09-12T17:21:57.384Z,19.19
2022-09-12T17:24:24.100Z,19.17
2022-09-12T17:26:51.389Z,19.18
2022-09-12T17:29:18.236Z,19.17
2022-09-12T17:31:45.637Z,19.18
2022-09-12T17:34:16.321Z,19.16
2022-09-12T17:36:48.342Z,19.16
2022-09-12T17:39:15.293Z,19.14
2022-09-12T17:41:42.730Z,19.14
2022-09-12T17:44:11.200Z,19.13
2022-09-12T17:46:39.209Z,19.13
2022-09-12T17:49:08.678Z,19.13
2022-09-12T17:51:35.631Z,19.11
2022-09-12T17:54:06.675Z,19.09
2022-09-12T17:56:34.751Z,19.05
2022-09-12T17:59:02.032Z,19.02
2022-09-12T18:01:48.048Z,19.02
2022-09-12T18:04:14.944Z,18.99
2022-09-12T18:06:47.797Z,18.96
2022-09-12T18:09:17.732Z,18.92
2022-09-12T18:11:44.570Z,18.89
2022-09-12T18:14:14.225Z,18.90
2022-09-12T18:16:41.424Z,18.91
2022-09-12T18:19:08.188Z,18.91
2022-09-12T18:21:34.847Z,18.89
2022-09-12T18:24:02.710Z,18.86
2022-09-12T18:26:30.680Z,18.85
2022-09-12T18:28:57.857Z,18.85
2022-09-12T18:31:27.481Z,18.89
2022-09-12T18:33:54.257Z,18.88
2022-09-12T18:36:21.661Z,18.87
2022-09-12T18:38:48.917Z,18.84
2022-09-12T18:41:17.961Z,18.90
2022-09-12T18:43:45.003Z,18.92
2022-09-12T18:46:14.064Z,18.90
2022-09-12T18:48:40.917Z,18.89
2022-09-12T18:51:11.297Z,18.89
2022-09-12T18:53:38.673Z,18.91
2022-09-12T18:56:10.527Z,18.83
2022-09-12T18:58:38.697Z,18.75
2022-09-12T19:01:15.981Z,18.72
2022-09-12T19:03:43.203Z,18.70
2022-09-12T19:06:17.515Z,18.75
2022-09-12T19:08:45.224Z,18.79
2022-09-12T19:11:12.288Z,18.83
2022-09-12T19:13:42.896Z,18.85
2022-09-12T19:16:11.992Z,18.87
2022-09-12T19:18:39.717Z,18.88
2022-09-12T19:21:08.642Z,18.87
2022-09-12T19:23:36.004Z,18.81
2022-09-12T19:26:07.611Z,18.77
2022-09-12T19:28:34.857Z,18.77
2022-09-12T19:31:07.553Z,18.81
2022-09-12T19:33:34.808Z,18.84
2022-09-12T19:36:04.309Z,18.84
2022-09-12T19:38:31.379Z,18.80
2022-09-12T19:40:59.425Z,18.79
2022-09-12T19:43:26.533Z,18.78
2022-09-12T19:45:53.291Z,18.74
2022-09-12T19:48:20.185Z,18.69
2022-09-12T19:50:47.129Z,18.66
2022-09-12T19:53:13.763Z,18.62
2022-09-12T19:55:40.341Z,18.68
2022-09-12T19:58:07.320Z,18.71
2022-09-12T20:00:35.025Z,18.72
2022-09-12T20:03:02.176Z,18.66
2022-09-12T20:05:28.762Z,18.59
2022-09-12T20:07:55.374Z,18.54
2022-09-12T20:10:21.935Z,18.51
2022-09-12T20:12:48.510Z,18.54
2022-09-12T20:15:15.401Z,18.60
2022-09-12T20:17:42.386Z,18.62
2022-09-12T20:20:10.326Z,18.61
2022-09-12T20:22:39.992Z,18.62
2022-09-12T20:25:07.295Z,18.59
2022-09-12T20:27:33.985Z,18.61
2022-09-12T20:30:00.664Z,18.59
2022-09-12T20:32:28.912Z,18.49
2022-09-12T20:34:56.436Z,18.39
2022-09-12T20:37:23.666Z,18.34
2022-09-12T20:39:51.069Z,18.32
2022-09-12T20:42:17.871Z,18.33
2022-09-12T20:44:44.486Z,18.31
2022-09-12T20:47:11.090Z,18.28
2022-09-12T20:49:37.675Z,18.37
2022-09-12T20:52:04.667Z,18.38
2022-09-12T20:54:31.232Z,18.40
2022-09-12T20:56:57.804Z,18.41
2022-09-12T20:59:24.385Z,18.37
2022-09-12T21:01:51.158Z,18.33
2022-09-12T21:04:18.496Z,18.24
2022-09-12T21:06:45.062Z,18.23
2022-09-12T21:09:11.653Z,18.14
2022-09-12T21:11:38.261Z,18.15
2022-09-12T21:14:05.015Z,18.14
2022-09-12T21:16:31.909Z,18.29
2022-09-12T21:18:59.569Z,18.31
2022-09-12T21:21:26.675Z,18.29
2022-09-12T21:23:55.414Z,18.27
2022-09-12T21:26:22.005Z,18.27
2022-09-12T21:28:48.865Z,18.30
2022-09-12T21:31:15.513Z,18.26
2022-09-12T21:33:42.204Z,18.21
2022-09-12T21:36:09.688Z,18.21
2022-09-12T21:38:36.384Z,18.24
2022-09-12T21:41:11.239Z,18.30
2022-09-12T21:43:38.290Z,18.35
2022-09-12T21:46:05.826Z,18.33
2022-09-12T21:48:32.964Z,18.38
2022-09-12T21:50:59.617Z,18.35
2022-09-12T21:53:26.660Z,18.39
2022-09-12T21:55:53.450Z,18.41
2022-09-12T21:58:20.051Z,18.41
2022-09-12T22:00:48.434Z,18.40
2022-09-12T22:03:15.430Z,18.46
2022-09-12T22:05:43.138Z,18.45
2022-09-12T22:08:11.005Z,18.47
2022-09-12T22:10:38.604Z,18.49
2022-09-12T22:13:05.700Z,18.50
2022-09-12T22:15:41.061Z,18.48
2022-09-12T22:18:08.092Z,18.48
2022-09-12T22:20:34.638Z,18.50
2022-09-12T22:23:24.392Z,18.46
2022-09-12T22:25:54.356Z,18.38
2022-09-12T22:28:21.344Z,18.40
2022-09-12T22:30:48.668Z,18.42
2022-09-12T22:33:15.309Z,18.46
2022-09-12T22:35:42.477Z,18.44
2022-09-12T22:38:09.213Z,18.44
2022-09-12T22:40:35.790Z,18.44
2022-09-12T22:43:02.393Z,18.43
2022-09-12T22:45:29.038Z,18.46
2022-09-12T22:47:59.156Z,18.48
2022-09-12T22:50:27.651Z,18.47
2022-09-12T22:52:54.250Z,18.46
2022-09-12T22:55:20.865Z,18.43
2022-09-12T22:57:47.463Z,18.44
2022-09-12T23:00:14.887Z,18.45
2022-09-12T23:02:41.552Z,18.44
2022-09-12T23:05:08.439Z,18.44
2022-09-12T23:07:35.698Z,18.44
2022-09-12T23:10:02.385Z,18.43
2022-09-12T23:12:29.020Z,18.41
2022-09-12T23:14:55.590Z,18.45
2022-09-12T23:17:22.165Z,18.43
2022-09-12T23:19:48.771Z,18.44
2022-09-12T23:22:15.351Z,18.44
2022-09-12T23:24:41.936Z,18.45
2022-09-12T23:27:08.941Z,18.46
2022-09-12T23:29:35.658Z,18.41
2022-09-12T23:32:03.989Z,18.43
2022-09-12T23:34:30.980Z,18.44
2022-09-12T23:36:57.621Z,18.43
2022-09-12T23:39:24.259Z,18.40
2022-09-12T23:41:50.842Z,18.40
2022-09-12T23:44:17.610Z,18.40
2022-09-12T23:46:44.207Z,18.39
2022-09-12T23:49:10.786Z,18.39
2022-09-12T23:51:37.378Z,18.40
2022-09-12T23:54:04.407Z,18.38
2022-09-12T23:56:31.028Z,18.38
2022-09-12T23:58:57.616Z,18.39
